Terminal Aerodrome Forecast
Issued by NWS

Home | Current Version | Previous Version | Text Only | Print | Product List | Glossary On
Versions: 1 2 3 4 5 6 7 8 9 10 11 12 13 14 15 16 17 18 19 20
011
FTUS46 KSGX 020520
TAFONT
TAF
KONT 020520Z 0206/0312 VRB04KT P6SM FEW020
     FM021200 VRB03KT P6SM BKN015
     FM021600 VRB04KT 5SM HZ SCT020
     FM021800 VRB05KT P6SM FEW025
     FM022100 26012KT P6SM SCT050
     FM030400 VRB04KT P6SM FEW020=

USA.gov is the U.S. government's official web portal to all federal, state and local government web resources and services.